Time;durP1;ratioP1;P1;durP2;ratioP2;P2;SDS_P1;SDS_P2;PMS_P1;PMS_P2;Temp;Humidity;BMP_temperature;BMP_pressure;BME280_temperature;BME280_humidity;BME280_pressure;Samples;Min_cycle;Max_cycle;Signal;HPM_P1;HPM_P2
2024/04/05 00:00:47;;;;;;;;;;;;;;;9.36;100.00;98490.25;5006381;28;19910;-96
2024/04/05 00:05:56;;;;;;;;;;;;;;;9.36;100.00;98500.03;5893553;23;19953;-94
2024/04/05 00:08:24;;;;;;;;;;;;;;;9.32;100.00;98491.03;4988620;28;19960;-94
2024/04/05 00:10:50;;;;;;;;;;;;;;;9.27;100.00;98490.00;4992744;28;19989;-93
2024/04/05 00:13:16;;;;;;;;;;;;;;;9.20;100.00;98488.00;4983668;28;19944;-93
2024/04/05 00:23:44;;;;;;;;;;;;;;;9.18;100.00;98476.41;5174577;23;19956;-95
2024/04/05 00:26:12;;;;;;;;;;;;;;;9.13;100.00;98478.03;5030737;28;20248;-95
2024/04/05 00:28:38;;;;;;;;;;;;;;;9.21;100.00;98472.06;5033838;28;19917;-95
2024/04/05 00:31:04;;;;;;;;;;;;;;;9.22;100.00;98468.56;4998393;28;19929;-94
2024/04/05 00:33:31;;;;;;;;;;;;;;;9.21;100.00;98469.41;5022926;28;19921;-95
2024/04/05 00:35:56;;;;;;;;;;;;;;;9.25;100.00;98457.09;5020626;28;19918;-94
2024/04/05 00:38:23;;;;;;;;;;;;;;;9.32;100.00;98459.09;5020875;28;19932;-94
2024/04/05 00:40:49;;;;;;;;;;;;;;;9.27;100.00;98452.72;5047411;28;19909;-93
2024/04/05 00:43:14;;;;;;;;;;;;;;;9.23;100.00;98445.50;5019074;28;19925;-93
2024/04/05 00:45:40;;;;;;;;;;;;;;;9.30;100.00;98451.91;5028550;28;20015;-94
2024/04/05 00:48:06;;;;;;;;;;;;;;;9.31;100.00;98461.72;5033913;28;19943;-94
2024/04/05 00:50:32;;;;;;;;;;;;;;;9.30;100.00;98465.22;5021800;28;19921;-93
2024/04/05 00:52:59;;;;;;;;;;;;;;;9.28;100.00;98466.94;5010682;28;19953;-93
2024/04/05 00:55:26;;;;;;;;;;;;;;;9.27;100.00;98470.47;5003956;28;20208;-93
2024/04/05 00:57:52;;;;;;;;;;;;;;;9.28;100.00;98465.16;5026186;28;19918;-94
2024/04/05 01:00:18;;;;;;;;;;;;;;;9.29;100.00;98455.41;5037627;28;19921;-93
2024/04/05 01:02:43;;;;;;;;;;;;;;;9.30;100.00;98450.16;5012767;28;19921;-93
2024/04/05 01:05:09;;;;;;;;;;;;;;;9.31;100.00;98451.97;5014529;28;20365;-95
2024/04/05 01:07:34;;;;;;;;;;;;;;;9.35;100.00;98451.19;5001031;28;19917;-94
2024/04/05 01:10:00;;;;;;;;;;;;;;;9.33;100.00;98447.56;5019021;28;20310;-93
2024/04/05 01:12:25;;;;;;;;;;;;;;;9.33;100.00;98442.25;4995466;28;19917;-93
2024/04/05 01:14:50;;;;;;;;;;;;;;;9.39;100.00;98441.50;5010528;28;19931;-94
2024/04/05 01:17:15;;;;;;;;;;;;;;;9.33;100.00;98442.25;5019785;28;19917;-94
2024/04/05 01:19:42;;;;;;;;;;;;;;;9.47;100.00;98432.00;5016677;28;20042;-92
2024/04/05 01:22:11;;;;;;;;;;;;;;;9.44;100.00;98435.50;5013210;28;19991;-92
2024/04/05 01:24:37;;;;;;;;;;;;;;;9.42;100.00;98431.84;5018760;28;20005;-92
2024/04/05 01:27:03;;;;;;;;;;;;;;;9.43;100.00;98433.66;5022308;28;19987;-92
2024/04/05 01:29:29;;;;;;;;;;;;;;;9.42;100.00;98428.31;5020853;28;19921;-92
2024/04/05 01:31:54;;;;;;;;;;;;;;;9.42;100.00;98422.97;5009470;28;20294;-92
2024/04/05 01:34:19;;;;;;;;;;;;;;;9.38;100.00;98424.63;5013696;28;19980;-92
2024/04/05 01:36:45;;;;;;;;;;;;;;;9.50;100.00;98430.31;5026983;28;19917;-92
2024/04/05 01:39:10;;;;;;;;;;;;;;;9.51;100.00;98428.56;5008524;28;20278;-92
2024/04/05 01:41:36;;;;;;;;;;;;;;;9.62;100.00;98431.53;4996457;28;19918;-91
2024/04/05 01:44:03;;;;;;;;;;;;;;;9.55;100.00;98425.13;5012288;28;19930;-92
2024/04/05 01:46:29;;;;;;;;;;;;;;;9.53;100.00;98429.50;5004721;28;19925;-93
2024/04/05 01:48:54;;;;;;;;;;;;;;;9.51;100.00;98431.22;5015289;28;20321;-93
2024/04/05 01:51:19;;;;;;;;;;;;;;;9.57;100.00;98425.16;5011893;28;19989;-92
2024/04/05 01:53:45;;;;;;;;;;;;;;;9.63;100.00;98425.31;5004369;28;19926;-93
2024/04/05 01:56:10;;;;;;;;;;;;;;;9.71;100.00;98427.34;5026244;28;19992;-92
2024/04/05 01:58:35;;;;;;;;;;;;;;;9.70;100.00;98422.88;5014277;28;20040;-93
2024/04/05 02:01:01;;;;;;;;;;;;;;;9.70;100.00;98408.66;5009883;28;19918;-92
2024/04/05 02:03:27;;;;;;;;;;;;;;;9.71;100.00;98419.34;5019889;28;20334;-90
2024/04/05 02:05:52;;;;;;;;;;;;;;;9.68;100.00;98411.31;5011829;28;19922;-92
2024/04/05 02:08:18;;;;;;;;;;;;;;;9.76;100.00;98414.16;4995517;28;19931;-90
2024/04/05 02:10:44;;;;;;;;;;;;;;;9.71;100.00;98407.81;4992898;28;20315;-91
2024/04/05 02:13:09;;;;;;;;;;;;;;;9.77;100.00;98408.91;5009001;28;19922;-91
2024/04/05 02:15:35;;;;;;;;;;;;;;;9.75;100.00;98417.69;5000211;28;19933;-90
2024/04/05 02:18:00;;;;;;;;;;;;;;;9.74;100.00;98411.47;5001175;28;19929;-91
2024/04/05 02:20:25;;;;;;;;;;;;;;;9.71;100.00;98416.69;5012071;28;19918;-90
2024/04/05 02:22:51;;;;;;;;;;;;;;;9.79;100.00;98414.25;4985224;28;19928;-90
2024/04/05 02:25:16;;;;;;;;;;;;;;;9.72;100.00;98410.50;5008452;28;19918;-91
2024/04/05 02:27:41;;;;;;;;;;;;;;;9.76;100.00;98411.50;5014914;28;19925;-91
2024/04/05 02:30:07;;;;;;;;;;;;;;;9.72;100.00;98412.25;5008060;28;19957;-91
2024/04/05 02:32:32;;;;;;;;;;;;;;;9.74;100.00;98413.22;5000603;28;20014;-91
2024/04/05 02:34:58;;;;;;;;;;;;;;;9.82;100.00;98414.34;5008798;28;19926;-91
2024/04/05 02:37:23;;;;;;;;;;;;;;;9.81;100.00;98417.84;5005124;28;19921;-91
2024/04/05 02:39:49;;;;;;;;;;;;;;;9.82;100.00;98417.00;5017429;28;19930;-90
2024/04/05 02:42:14;;;;;;;;;;;;;;;9.80;100.00;98421.38;5012781;28;19926;-92
2024/04/05 02:44:40;;;;;;;;;;;;;;;9.80;100.00;98417.81;4992246;28;19926;-92
2024/04/05 02:47:06;;;;;;;;;;;;;;;9.83;100.00;98417.91;4999995;28;20041;-92
2024/04/05 02:49:31;;;;;;;;;;;;;;;9.89;100.00;98418.97;5007638;28;19976;-92
2024/04/05 02:51:58;;;;;;;;;;;;;;;9.91;100.00;98419.88;4993305;28;19922;-92
2024/04/05 02:54:23;;;;;;;;;;;;;;;9.89;100.00;98424.28;5008193;28;19922;-92
2024/04/05 02:56:49;;;;;;;;;;;;;;;9.91;100.00;98425.22;5008298;28;19973;-90
2024/04/05 02:59:14;;;;;;;;;;;;;;;9.93;100.00;98417.28;5007330;28;19928;-92
2024/04/05 03:01:39;;;;;;;;;;;;;;;9.89;100.00;98418.97;5006434;28;19980;-91
2024/04/05 03:04:05;;;;;;;;;;;;;;;9.91;100.00;98427.00;5009676;28;19956;-91
2024/04/05 03:06:30;;;;;;;;;;;;;;;9.94;100.00;98414.66;4999383;28;19929;-91
2024/04/05 03:08:55;;;;;;;;;;;;;;;9.92;100.00;98421.72;5009430;28;20024;-90
2024/04/05 03:11:21;;;;;;;;;;;;;;;9.87;100.00;98420.69;5002293;28;19921;-90
2024/04/05 03:13:46;;;;;;;;;;;;;;;9.81;100.00;98423.19;5004751;28;19929;-89
2024/04/05 03:16:12;;;;;;;;;;;;;;;9.80;100.00;98421.38;5008704;28;20657;-91
2024/04/05 03:18:38;;;;;;;;;;;;;;;9.91;100.00;98425.22;5007769;28;19924;-91
2024/04/05 03:21:03;;;;;;;;;;;;;;;9.84;100.00;98417.94;5007778;28;19922;-90
2024/04/05 03:23:29;;;;;;;;;;;;;;;10.00;100.00;98430.81;5000814;28;19922;-91
2024/04/05 03:25:55;;;;;;;;;;;;;;;10.00;100.00;98430.81;5007082;28;19932;-89
2024/04/05 03:28:20;;;;;;;;;;;;;;;10.00;100.00;98438.78;5011639;28;20219;-91
2024/04/05 03:30:45;;;;;;;;;;;;;;;10.01;100.00;98437.97;5010712;28;20390;-91
2024/04/05 03:33:11;;;;;;;;;;;;;;;10.02;100.00;98436.19;5002203;28;19933;-90
2024/04/05 03:35:37;;;;;;;;;;;;;;;9.98;100.00;98434.31;5010692;28;19937;-91
2024/04/05 03:38:02;;;;;;;;;;;;;;;10.05;100.00;98444.25;5004962;28;19940;-92
2024/04/05 03:40:28;;;;;;;;;;;;;;;10.08;100.00;98436.34;5011371;28;19964;-91
2024/04/05 03:42:53;;;;;;;;;;;;;;;10.11;100.00;98430.19;5018604;28;20255;-90
2024/04/05 03:45:18;;;;;;;;;;;;;;;10.06;100.00;98426.50;5012464;28;19996;-91
2024/04/05 03:47:44;;;;;;;;;;;;;;;9.96;100.00;98428.00;5005578;28;20000;-92
2024/04/05 03:50:09;;;;;;;;;;;;;;;9.93;100.00;98436.84;5033450;28;19940;-91
2024/04/05 03:52:35;;;;;;;;;;;;;;;9.93;100.00;98430.63;5018560;28;19940;-91
2024/04/05 03:55:01;;;;;;;;;;;;;;;9.89;100.00;98426.97;5012175;28;19933;-89
2024/04/05 03:57:26;;;;;;;;;;;;;;;9.79;100.00;98418.69;5006688;28;20032;-91
2024/04/05 03:59:51;;;;;;;;;;;;;;;9.66;100.00;98415.66;5023221;28;20366;-91
2024/04/05 04:02:17;;;;;;;;;;;;;;;9.58;100.00;98424.31;5019617;28;20415;-92
2024/04/05 04:04:42;;;;;;;;;;;;;;;9.51;100.00;98418.81;5012162;28;20639;-93
2024/04/05 04:07:07;;;;;;;;;;;;;;;9.41;100.00;98427.41;4997944;28;20012;-93
2024/04/05 04:09:33;;;;;;;;;;;;;;;9.40;100.00;98422.94;5022934;28;19929;-91
2024/04/05 04:11:58;;;;;;;;;;;;;;;9.37;100.00;98422.84;5020190;28;19922;-91
2024/04/05 04:14:23;;;;;;;;;;;;;;;9.36;100.00;98426.38;5033430;28;19925;-91
2024/04/05 04:16:49;;;;;;;;;;;;;;;9.41;100.00;98424.75;5013375;28;19929;-91
2024/04/05 04:19:21;;;;;;;;;;;;;;;9.40;100.00;98432.69;5011467;28;19917;-91
2024/04/05 04:21:47;;;;;;;;;;;;;;;9.40;100.00;98424.69;5015798;28;20028;-91
2024/04/05 04:24:16;;;;;;;;;;;;;;;9.42;100.00;98436.28;5026331;28;19917;-91
2024/04/05 04:26:41;;;;;;;;;;;;;;;9.22;100.00;98433.06;5015420;28;19930;-91
2024/04/05 04:29:07;;;;;;;;;;;;;;;9.18;100.00;98431.16;5011196;28;20059;-90
2024/04/05 04:31:33;;;;;;;;;;;;;;;9.11;100.00;98431.84;5006484;28;20001;-90
2024/04/05 04:33:58;;;;;;;;;;;;;;;8.98;100.00;98427.91;5006157;28;19969;-90
2024/04/05 04:36:24;;;;;;;;;;;;;;;8.85;100.00;98439.91;5009351;28;19921;-91
2024/04/05 04:38:51;;;;;;;;;;;;;;;8.86;100.00;98430.16;5020250;28;19937;-91
2024/04/05 04:41:16;;;;;;;;;;;;;;;8.90;100.00;98438.28;5009171;28;20055;-90
2024/04/05 04:43:42;;;;;;;;;;;;;;;8.90;100.00;98435.63;5014371;28;19997;-90
2024/04/05 04:46:10;;;;;;;;;;;;;;;8.83;100.00;98435.41;5011421;28;19989;-91
2024/04/05 04:48:36;;;;;;;;;;;;;;;8.75;100.00;98427.19;5016038;28;20413;-90
2024/04/05 04:51:03;;;;;;;;;;;;;;;8.81;100.00;98430.03;5012872;28;19918;-91
2024/04/05 04:53:31;;;;;;;;;;;;;;;8.92;100.00;98422.41;5013822;28;19929;-90
2024/04/05 04:55:56;;;;;;;;;;;;;;;8.91;100.00;98421.50;5007184;28;19925;-90
2024/04/05 04:58:28;;;;;;;;;;;;;;;8.83;100.00;98425.66;5002111;28;19928;-91
2024/04/05 05:00:54;;;;;;;;;;;;;;;8.75;100.00;98429.84;5014639;28;19988;-91
2024/04/05 05:03:19;;;;;;;;;;;;;;;8.74;100.00;98431.59;5004701;28;19917;-90
2024/04/05 05:05:45;;;;;;;;;;;;;;;8.74;100.00;98430.69;5010620;28;19925;-89
2024/04/05 05:08:13;;;;;;;;;;;;;;;8.73;100.00;98435.13;4990037;28;19943;-91
2024/04/05 05:10:42;;;;;;;;;;;;;;;8.63;100.00;98434.78;5018352;28;19926;-90
2024/04/05 05:13:14;;;;;;;;;;;;;;;8.63;100.00;98434.78;5005526;28;19932;-90
2024/04/05 05:15:40;;;;;;;;;;;;;;;8.56;100.00;98438.09;5010568;28;19927;-89
2024/04/05 05:18:09;;;;;;;;;;;;;;;8.55;100.00;98436.28;5001171;28;19932;-90
2024/04/05 05:20:34;;;;;;;;;;;;;;;8.48;100.00;98438.75;4993397;28;19921;-90
2024/04/05 05:22:59;;;;;;;;;;;;;;;8.42;100.00;98443.84;4995300;28;20009;-90
2024/04/05 05:25:25;;;;;;;;;;;;;;;8.36;100.00;98448.97;5010240;28;19918;-91
2024/04/05 05:27:50;;;;;;;;;;;;;;;8.42;100.00;98443.84;5009921;28;20012;-91
2024/04/05 05:30:21;;;;;;;;;;;;;;;8.29;100.00;98443.34;5008470;28;19918;-88
2024/04/05 05:32:48;;;;;;;;;;;;;;;8.15;100.00;98446.47;5001228;28;19925;-91
2024/04/05 05:35:13;;;;;;;;;;;;;;;8.21;100.00;98443.13;5007693;28;19926;-90
2024/04/05 05:37:38;;;;;;;;;;;;;;;8.13;100.00;98442.84;5013050;28;19975;-90
2024/04/05 05:40:13;;;;;;;;;;;;;;;8.11;100.00;98441.91;5004428;28;19921;-92
2024/04/05 05:42:43;;;;;;;;;;;;;;;8.07;100.00;98440.00;5008237;28;19930;-91
2024/04/05 05:45:09;;;;;;;;;;;;;;;8.01;100.00;98436.22;5009332;28;20016;-90
2024/04/05 05:47:34;;;;;;;;;;;;;;;7.96;100.00;98436.97;5009678;28;20021;-91
2024/04/05 05:49:59;;;;;;;;;;;;;;;8.05;100.00;98433.72;4993431;28;19921;-91
2024/04/05 05:52:24;;;;;;;;;;;;;;;8.09;100.00;98442.69;5009315;28;19925;-92
2024/04/05 05:54:51;;;;;;;;;;;;;;;8.20;100.00;98436.00;5010824;28;20027;-92
2024/04/05 05:57:16;;;;;;;;;;;;;;;8.27;100.00;98431.78;5017242;28;19953;-91
2024/04/05 05:59:42;;;;;;;;;;;;;;;8.33;100.00;98435.53;5004297;28;19917;-91
2024/04/05 06:02:08;;;;;;;;;;;;;;;8.53;100.00;98432.66;5021442;28;19928;-93
2024/04/05 06:04:33;;;;;;;;;;;;;;;8.71;100.00;98431.50;5001996;28;19973;-93
2024/04/05 06:06:59;;;;;;;;;;;;;;;8.85;100.00;98434.59;4997241;28;19921;-90
2024/04/05 06:09:25;;;;;;;;;;;;;;;8.96;100.00;98425.19;5008844;28;19925;-90
2024/04/05 06:11:52;;;;;;;;;;;;;;;9.35;100.00;98423.66;4994383;28;19925;-91
2024/04/05 06:14:17;;;;;;;;;;;;;;;9.69;100.00;98421.09;5005501;28;20318;-92
2024/04/05 06:16:44;;;;;;;;;;;;;;;9.86;100.00;98426.88;4998927;28;19971;-91
2024/04/05 06:19:12;;;;;;;;;;;;;;;10.23;100.00;98426.06;5006770;28;19957;-91
2024/04/05 06:21:38;;;;;;;;;;;;;;;10.55;100.00;98438.47;5007315;28;19918;-92
2024/04/05 06:24:05;;;;;;;;;;;;;;;10.65;99.31;98435.13;5000420;28;19936;-91
2024/04/05 06:26:32;;;;;;;;;;;;;;;10.66;99.24;98431.59;5000062;28;20442;-90
2024/04/05 06:28:57;;;;;;;;;;;;;;;10.49;99.67;98429.44;4997471;28;20282;-90
2024/04/05 06:31:23;;;;;;;;;;;;;;;10.81;98.85;98439.06;5004472;28;20380;-89
2024/04/05 06:33:48;;;;;;;;;;;;;;;11.42;97.60;98441.34;4987214;28;19926;-91
2024/04/05 06:36:14;;;;;;;;;;;;;;;11.85;95.92;98436.88;5015311;28;20017;-93
2024/04/05 06:38:40;;;;;;;;;;;;;;;12.18;94.14;98430.38;5015358;28;20379;-90
2024/04/05 06:41:08;;;;;;;;;;;;;;;12.62;94.35;98431.13;4994302;28;19921;-92
2024/04/05 06:43:34;;;;;;;;;;;;;;;12.77;91.76;98434.03;5005271;28;20024;-91
2024/04/05 06:46:00;;;;;;;;;;;;;;;13.32;89.82;98434.88;5008369;28;19922;-90
2024/04/05 06:48:27;;;;;;;;;;;;;;;13.98;87.34;98424.03;5009093;28;20279;-92
2024/04/05 06:50:53;;;;;;;;;;;;;;;14.44;87.18;98414.66;4990109;28;20382;-91
2024/04/05 06:53:19;;;;;;;;;;;;;;;14.29;83.25;98414.53;4988956;28;19933;-91
2024/04/05 06:55:44;;;;;;;;;;;;;;;14.70;83.86;98414.00;5007058;28;20386;-93
2024/04/05 06:58:11;;;;;;;;;;;;;;;15.08;80.32;98404.41;4985737;28;19922;-92
2024/04/05 07:00:37;;;;;;;;;;;;;;;15.62;78.32;98405.59;5010627;28;19976;-93
2024/04/05 07:03:02;;;;;;;;;;;;;;;16.37;75.07;98394.13;5016469;28;19926;-93
2024/04/05 07:05:28;;;;;;;;;;;;;;;17.21;70.09;98394.06;5006512;28;19921;-92
2024/04/05 07:07:54;;;;;;;;;;;;;;;17.00;65.82;98392.31;5007658;28;20060;-93
2024/04/05 07:10:20;;;;;;;;;;;;;;;17.19;63.79;98398.56;5000395;28;20354;-94
2024/04/05 07:12:48;;;;;;;;;;;;;;;16.53;64.85;98390.53;5006707;28;19928;-91
2024/04/05 07:15:13;;;;;;;;;;;;;;;16.68;64.07;98386.94;5002519;28;19933;-92
2024/04/05 07:17:39;;;;;;;;;;;;;;;16.97;62.13;98395.03;5011572;28;19922;-93
2024/04/05 07:20:05;;;;;;;;;;;;;;;16.67;63.33;98403.97;4992350;28;20373;-93
2024/04/05 07:22:31;;;;;;;;;;;;;;;16.25;64.89;98405.78;5009912;28;19921;-93
2024/04/05 07:24:56;;;;;;;;;;;;;;;16.82;62.75;98405.84;4983744;28;20888;-94
2024/04/05 07:27:22;;;;;;;;;;;;;;;16.45;62.76;98399.50;4992888;28;20031;-94
2024/04/05 07:29:48;;;;;;;;;;;;;;;16.10;63.73;98395.91;5009540;28;19921;-93
2024/04/05 07:32:13;;;;;;;;;;;;;;;16.33;63.09;98403.97;4994465;28;20306;-93
2024/04/05 07:34:41;;;;;;;;;;;;;;;16.14;63.38;98408.47;5008390;28;19937;-94
2024/04/05 07:37:09;;;;;;;;;;;;;;;16.42;63.33;98414.75;5006511;28;19967;-92
2024/04/05 07:39:39;;;;;;;;;;;;;;;16.28;63.86;98410.25;5009419;28;19926;-94
2024/04/05 07:42:04;;;;;;;;;;;;;;;16.35;62.36;98415.66;5018507;28;20013;-94
2024/04/05 07:44:31;;;;;;;;;;;;;;;16.48;62.78;98415.66;5015459;28;20684;-93
2024/04/05 07:46:56;;;;;;;;;;;;;;;16.58;62.51;98407.59;5020416;28;19918;-94
2024/04/05 07:49:23;;;;;;;;;;;;;;;16.90;62.49;98393.22;5000889;28;19921;-94
2024/04/05 07:51:50;;;;;;;;;;;;;;;16.58;61.45;98380.66;5022643;28;19929;-95
2024/04/05 07:54:18;;;;;;;;;;;;;;;16.87;61.25;98385.16;5000676;28;20067;-95
2024/04/05 07:56:43;;;;;;;;;;;;;;;16.37;62.49;98381.53;5025795;28;19929;-95
2024/04/05 07:59:10;;;;;;;;;;;;;;;16.83;62.21;98384.25;5035270;28;19953;-96
2024/04/05 08:01:37;;;;;;;;;;;;;;;17.26;60.06;98383.28;5030114;28;19943;-96
2024/04/05 09:06:37;;;;;;;;;;;;;;;20.14;49.21;98366.34;1230571;23;20195;-92
2024/04/05 09:09:06;;;;;;;;;;;;;;;19.84;50.04;98369.50;5029145;28;19986;-95
2024/04/05 09:11:33;;;;;;;;;;;;;;;20.95;49.16;98361.44;5012137;28;19918;-96
2024/04/05 09:16:36;;;;;;;;;;;;;;;20.39;49.28;98356.03;5326610;23;19922;-96
2024/04/05 09:19:08;;;;;;;;;;;;;;;21.15;48.35;98356.53;4989482;28;19917;-96
2024/04/05 09:21:42;;;;;;;;;;;;;;;21.91;45.46;98345.03;5007584;28;19918;-96
2024/04/05 09:24:17;;;;;;;;;;;;;;;20.90;47.45;98341.63;5003042;28;19918;-96
2024/04/05 09:26:47;;;;;;;;;;;;;;;21.83;44.88;98333.44;4991227;28;19918;-96
2024/04/05 09:29:13;;;;;;;;;;;;;;;21.94;44.69;98337.72;4981673;28;20004;-96
2024/04/05 09:31:47;;;;;;;;;;;;;;;23.42;43.01;98332.13;5007651;28;19918;-95
2024/04/05 09:34:35;;;;;;;;;;;;;;;22.88;42.13;98319.09;5014673;28;19939;-96
2024/04/05 09:37:02;;;;;;;;;;;;;;;22.89;42.44;98319.09;5015350;28;19923;-95
2024/04/05 09:39:28;;;;;;;;;;;;;;;24.55;38.89;98320.50;4977172;28;19972;-93
2024/04/05 09:41:57;;;;;;;;;;;;;;;24.43;39.08;98312.72;4970475;28;19925;-94
2024/04/05 09:44:23;;;;;;;;;;;;;;;23.55;39.95;98312.69;4988970;28;20184;-95
2024/04/05 09:46:52;;;;;;;;;;;;;;;24.81;37.92;98308.69;5002027;28;19914;-95
2024/04/05 09:49:17;;;;;;;;;;;;;;;25.21;38.23;98310.94;4984686;28;19921;-95
2024/04/05 09:51:44;;;;;;;;;;;;;;;25.05;38.99;98307.81;5002480;28;20267;-95
2024/04/05 09:54:17;;;;;;;;;;;;;;;25.26;37.12;98310.75;4984345;28;20025;-95
2024/04/05 09:56:46;;;;;;;;;;;;;;;22.08;41.76;98321.06;4987301;28;19979;-95
2024/04/05 09:59:13;;;;;;;;;;;;;;;24.00;38.06;98319.50;4982986;28;19928;-95
2024/04/05 10:01:41;;;;;;;;;;;;;;;23.10;40.77;98308.56;4999611;28;19918;-94
2024/04/05 10:04:07;;;;;;;;;;;;;;;24.45;38.55;98306.28;5000694;28;20398;-95
2024/04/05 10:06:38;;;;;;;;;;;;;;;22.78;41.80;98313.91;4986920;28;19921;-94
2024/04/05 10:09:15;;;;;;;;;;;;;;;25.65;35.63;98296.53;4983139;28;19933;-94
2024/04/05 10:11:50;;;;;;;;;;;;;;;24.05;38.26;98304.81;4986701;28;19926;-94
2024/04/05 10:14:25;;;;;;;;;;;;;;;24.79;37.59;98286.91;5366001;23;19928;-95
2024/04/05 10:17:06;;;;;;;;;;;;;;;24.99;36.73;98282.56;4964385;28;19918;-94
2024/04/05 10:19:38;;;;;;;;;;;;;;;25.05;36.07;98282.34;4975463;28;19922;-95
2024/04/05 10:22:18;;;;;;;;;;;;;;;25.10;36.64;98269.44;4967162;28;19968;-95
2024/04/05 10:24:45;;;;;;;;;;;;;;;27.17;31.08;98256.50;4976450;28;19918;-94
2024/04/05 10:27:29;;;;;;;;;;;;;;;26.89;31.13;98259.53;4966419;29;19949;-94
2024/04/05 10:30:06;;;;;;;;;;;;;;;25.76;33.12;98256.94;4989473;28;19906;-94
2024/04/05 10:32:34;;;;;;;;;;;;;;;26.08;31.28;98246.56;4979408;28;19987;-95
2024/04/05 10:35:11;;;;;;;;;;;;;;;25.73;31.71;98239.75;4987745;28;19918;-93
2024/04/05 10:37:38;;;;;;;;;;;;;;;27.63;29.70;98243.38;4976820;28;19922;-92
2024/04/05 10:40:12;;;;;;;;;;;;;;;28.75;27.24;98230.53;4996097;28;20378;-93
2024/04/05 10:42:41;;;;;;;;;;;;;;;28.25;26.90;98227.59;4978531;28;19977;-94
2024/04/05 10:45:17;;;;;;;;;;;;;;;27.83;27.78;98226.88;4976696;28;19961;-93
2024/04/05 10:47:54;;;;;;;;;;;;;;;27.96;27.65;98221.69;4950132;28;19923;-95
2024/04/05 10:50:23;;;;;;;;;;;;;;;27.35;26.75;98225.50;4958671;28;19918;-93
2024/04/05 10:52:52;;;;;;;;;;;;;;;26.09;28.88;98223.72;4935403;28;19961;-95
2024/04/05 10:55:19;;;;;;;;;;;;;;;26.22;29.21;98211.31;4955758;28;19922;-95
2024/04/05 10:57:45;;;;;;;;;;;;;;;26.72;28.58;98208.25;4940349;28;20008;-94
2024/04/05 11:00:27;;;;;;;;;;;;;;;26.42;28.79;98206.84;4948218;28;20566;-96
2024/04/05 11:02:54;;;;;;;;;;;;;;;25.08;30.08;98203.13;4938986;28;20394;-95
2024/04/05 11:05:20;;;;;;;;;;;;;;;24.86;32.14;98191.16;4969918;28;19985;-95
2024/04/05 11:07:56;;;;;;;;;;;;;;;25.86;29.31;98191.88;4978226;28;19918;-96
2024/04/05 11:10:23;;;;;;;;;;;;;;;25.29;30.10;98198.66;4955086;28;19937;-95
2024/04/05 11:15:27;;;;;;;;;;;;;;;28.03;26.95;98183.91;5111673;23;19922;-95
2024/04/05 11:18:02;;;;;;;;;;;;;;;28.44;26.09;98192.78;4944082;28;19929;-95
2024/04/05 11:20:31;;;;;;;;;;;;;;;26.28;29.08;98193.75;4974100;28;19953;-95
2024/04/05 11:23:04;;;;;;;;;;;;;;;27.11;28.49;98196.50;4969619;28;19928;-95
2024/04/05 11:25:29;;;;;;;;;;;;;;;26.65;29.01;98198.56;4948852;28;19990;-95
2024/04/05 11:27:55;;;;;;;;;;;;;;;26.23;28.64;98191.22;4964841;28;20264;-95
2024/04/05 11:30:21;;;;;;;;;;;;;;;26.71;28.51;98191.91;4964339;28;19922;-95
2024/04/05 11:32:47;;;;;;;;;;;;;;;26.13;28.80;98189.84;4945215;28;19918;-95
2024/04/05 11:35:15;;;;;;;;;;;;;;;25.88;29.68;98194.56;4949064;28;20379;-95
2024/04/05 11:37:45;;;;;;;;;;;;;;;25.95;30.08;98194.22;4978284;28;19950;-94
2024/04/05 11:40:11;;;;;;;;;;;;;;;26.51;30.13;98198.28;4967827;28;19929;-96
2024/04/05 11:42:41;;;;;;;;;;;;;;;27.54;28.26;98191.75;4962155;28;19956;-96
2024/04/05 11:45:07;;;;;;;;;;;;;;;27.01;27.94;98187.78;4959501;28;19925;-95
2024/04/05 11:47:36;;;;;;;;;;;;;;;28.91;24.89;98188.50;4935842;28;20284;-94
2024/04/05 11:50:03;;;;;;;;;;;;;;;28.69;26.29;98183.28;4956638;28;19931;-94
2024/04/05 11:52:29;;;;;;;;;;;;;;;28.31;26.92;98180.63;4946998;28;19924;-96
2024/04/05 11:54:54;;;;;;;;;;;;;;;27.85;26.80;98181.09;4950758;28;20123;-95
2024/04/05 11:57:20;;;;;;;;;;;;;;;27.83;26.73;98182.13;4953225;28;19922;-94
2024/04/05 11:59:47;;;;;;;;;;;;;;;27.02;27.66;98196.88;4935027;28;19922;-96
2024/04/05 12:02:12;;;;;;;;;;;;;;;26.51;28.79;98184.59;4962801;28;19926;-95
2024/04/05 12:04:38;;;;;;;;;;;;;;;26.32;29.42;98184.47;4961205;28;20563;-94
2024/04/05 12:07:04;;;;;;;;;;;;;;;25.89;30.30;98188.13;4948736;28;20030;-96
2024/04/05 12:09:31;;;;;;;;;;;;;;;25.45;31.31;98185.31;4976207;28;19924;-96
2024/04/05 12:11:56;;;;;;;;;;;;;;;24.94;31.49;98186.31;4947507;28;19926;-95
2024/04/05 12:14:21;;;;;;;;;;;;;;;24.61;32.03;98183.00;4966189;28;20265;-96
2024/04/05 12:16:47;;;;;;;;;;;;;;;24.09;32.26;98174.75;4967450;28;19922;-95
2024/04/05 12:19:13;;;;;;;;;;;;;;;24.00;33.25;98185.97;4957098;28;19922;-95
2024/04/05 12:21:40;;;;;;;;;;;;;;;23.77;33.67;98190.38;4964859;28;19918;-96
2024/04/05 12:24:06;;;;;;;;;;;;;;;23.22;34.03;98194.78;4969056;28;19985;-95
2024/04/05 12:26:31;;;;;;;;;;;;;;;23.00;34.72;98188.22;4989581;28;19921;-96
2024/04/05 12:28:57;;;;;;;;;;;;;;;22.97;34.01;98191.00;4991972;28;20303;-95
2024/04/05 12:31:25;;;;;;;;;;;;;;;22.69;34.83;98191.75;5009780;28;19922;-96
2024/04/05 12:33:51;;;;;;;;;;;;;;;22.69;34.75;98204.47;5011500;28;19918;-96
2024/04/05 12:36:17;;;;;;;;;;;;;;;22.89;34.13;98193.06;4979272;28;19918;-95
2024/04/05 12:38:46;;;;;;;;;;;;;;;22.84;34.14;98190.44;4994574;28;19932;-96
2024/04/05 12:41:12;;;;;;;;;;;;;;;22.77;34.46;98192.44;4976348;28;20025;-96
2024/04/05 12:43:38;;;;;;;;;;;;;;;22.47;34.95;98187.84;4987276;28;19914;-96
2024/04/05 12:46:04;;;;;;;;;;;;;;;22.74;34.88;98187.09;4977554;28;19929;-96
2024/04/05 12:48:30;;;;;;;;;;;;;;;22.58;35.02;98185.75;5071799;23;19933;-96
2024/04/05 12:51:00;;;;;;;;;;;;;;;22.41;34.98;98188.00;4957897;28;19922;-96
2024/04/05 12:53:26;;;;;;;;;;;;;;;22.51;35.12;98174.13;4972642;28;19910;-93
2024/04/05 12:55:55;;;;;;;;;;;;;;;22.26;35.74;98190.22;4981133;28;19914;-93
2024/04/05 12:58:21;;;;;;;;;;;;;;;22.05;35.88;98185.31;4978186;28;19926;-92
2024/04/05 13:00:46;;;;;;;;;;;;;;;22.11;36.20;98186.97;4968591;28;19933;-93
2024/04/05 13:03:12;;;;;;;;;;;;;;;22.30;36.08;98185.59;4976538;28;19985;-92
2024/04/05 13:05:38;;;;;;;;;;;;;;;22.62;35.77;98189.28;4983836;28;19922;-94
2024/04/05 13:08:04;;;;;;;;;;;;;;;23.25;34.91;98177.47;4951995;29;19930;-94
2024/04/05 13:10:30;;;;;;;;;;;;;;;23.35;34.90;98173.53;4947451;28;20068;-94
2024/04/05 13:12:56;;;;;;;;;;;;;;;23.42;34.62;98169.66;4948691;28;19969;-96
2024/04/05 13:15:22;;;;;;;;;;;;;;;22.76;35.61;98176.19;4969981;28;20286;-94
2024/04/05 13:17:49;;;;;;;;;;;;;;;22.79;35.25;98181.50;4956403;28;20021;-94
2024/04/05 13:20:14;;;;;;;;;;;;;;;22.49;35.91;98169.69;4940116;28;19964;-94
2024/04/05 13:22:39;;;;;;;;;;;;;;;22.36;36.22;98173.66;4936979;28;19964;-93
2024/04/05 13:25:05;;;;;;;;;;;;;;;22.41;36.15;98179.84;4937223;28;19918;-94
2024/04/05 13:27:30;;;;;;;;;;;;;;;22.24;36.76;98172.19;4958971;28;19929;-91
2024/04/05 13:29:55;;;;;;;;;;;;;;;22.21;36.37;98173.13;4950201;28;20030;-93
2024/04/05 13:32:21;;;;;;;;;;;;;;;22.16;36.76;98176.91;4955399;28;19922;-92
2024/04/05 13:34:50;;;;;;;;;;;;;;;22.12;37.31;98177.91;4971286;28;19926;-93
2024/04/05 13:37:17;;;;;;;;;;;;;;;22.29;37.18;98156.63;4966388;28;19926;-93
2024/04/05 13:39:42;;;;;;;;;;;;;;;22.32;37.73;98166.50;4968393;28;19918;-92
2024/04/05 13:42:09;;;;;;;;;;;;;;;22.30;37.62;98168.41;4952179;28;19934;-94
2024/04/05 13:44:35;;;;;;;;;;;;;;;22.31;36.97;98170.19;4965788;28;19926;-93
2024/04/05 13:47:01;;;;;;;;;;;;;;;22.25;37.65;98160.38;4971334;28;19930;-94
2024/04/05 13:49:28;;;;;;;;;;;;;;;22.00;39.16;98149.22;4971897;28;21765;-95
2024/04/05 13:51:53;;;;;;;;;;;;;;;22.05;39.64;98165.41;4990936;28;19956;-92
2024/04/05 13:54:20;;;;;;;;;;;;;;;21.89;40.69;98163.06;4961362;28;19922;-95
2024/04/05 13:56:45;;;;;;;;;;;;;;;21.85;40.21;98144.19;4987557;28;19973;-94
2024/04/05 13:59:13;;;;;;;;;;;;;;;21.76;41.36;98138.06;4971136;28;20052;-93
2024/04/05 14:01:39;;;;;;;;;;;;;;;21.61;39.74;98153.84;4980452;28;20124;-94